Date,TemperatureHighF,TemperatureAvgF,TemperatureLowF,DewpointHighF,DewpointAvgF,DewpointLowF,HumidityHigh,HumidityAvg,HumidityLow,PressureMaxIn,PressureMinIn,WindSpeedMaxMPH,WindSpeedAvgMPH,GustSpeedMaxMPH,PrecipitationSumIn
2013-11-1,89.4,79.9,72.1,72.4,68.1,62.4,92,69,45,30.05,29.89,11,3,16,0.00
2013-11-2,77.0,71.0,64.4,72.4,66.8,60.8,93,87,74,30.02,29.85,9,3,14,0.50
2013-11-3,79.0,67.1,57.6,60.6,54.2,42.1,96,67,31,30.17,30.00,10,4,15,0.01
2013-11-4,79.3,69.6,61.5,65.3,59.7,55.0,87,72,46,30.22,30.14,11,4,19,0.01
2013-11-5,84.9,74.7,68.4,69.7,67.0,63.2,92,78,52,30.21,30.14,12,4,18,0.09
2013-11-6,82.2,74.2,68.9,72.2,67.8,65.8,93,81,61,30.17,30.08,7,2,13,0.01
2013-11-7,82.9,73.8,69.3,70.7,68.0,65.2,99,83,60,30.10,30.00,5,2,8,0.00
2013-11-8,79.7,70.3,64.4,66.1,62.5,54.4,94,77,60,30.18,30.03,12,5,17,0.00
2013-11-9,81.9,71.4,62.6,66.2,61.1,57.4,91,71,51,30.23,30.15,10,2,13,0.00
2013-11-10,84.0,73.0,64.0,67.7,64.1,60.1,92,75,51,30.22,30.14,6,2,11,0.00
2013-11-11,83.3,73.3,64.4,69.0,64.8,61.7,93,76,55,30.21,30.12,6,2,11,0.00
2013-11-12,81.3,71.7,64.4,68.2,63.8,56.2,96,77,57,30.16,30.04,7,2,10,0.00
2013-11-13,68.2,62.5,57.2,57.0,51.4,48.4,78,68,54,30.36,30.12,15,8,21,0.00
2013-11-14,77.5,65.0,54.7,58.5,54.2,49.3,87,70,45,30.35,30.22,10,2,14,0.00
2013-11-15,75.6,68.1,62.1,67.0,62.6,56.0,91,83,69,30.25,30.12,5,1,8,0.08
2013-11-16,77.4,71.6,67.6,72.7,69.0,65.7,97,92,81,30.19,30.08,6,2,9,0.08
2013-11-17,86.5,76.7,69.6,73.2,69.6,67.4,95,80,53,30.13,30.03,7,2,10,0.00
2013-11-18,83.1,77.0,72.1,70.9,69.1,67.2,91,77,61,30.07,29.95,7,2,9,0.00
2013-11-19,78.8,72.4,67.1,69.4,63.7,56.4,94,75,52,30.03,29.93,7,3,11,0.00
2013-11-20,79.5,72.3,66.2,72.7,67.3,62.6,93,84,69,30.17,30.01,8,3,12,0.04
2013-11-21,79.3,73.6,71.1,71.7,69.5,67.9,93,87,74,30.24,30.14,10,3,14,0.05
2013-11-22,82.0,74.9,70.9,71.3,67.9,64.8,93,80,59,30.25,30.15,8,2,12,0.00
2013-11-23,79.3,75.0,65.8,70.1,67.2,62.2,93,77,71,30.16,30.12,4,2,6,0.00
2013-11-24,79.2,70.2,62.8,74.9,59.7,11.0,91,69,65,30.15,29.72,13,6,23,0.00
2013-11-25,76.5,68.4,61.9,61.3,56.4,51.9,78,66,50,30.06,29.88,10,5,19,0.00
2013-11-26,81.7,74.4,68.2,72.4,68.8,61.1,96,83,67,29.89,29.54,12,5,19,0.09
2013-11-27,75.6,63.2,44.8,72.3,55.7,36.5,95,77,55,30.01,29.49,17,8,25,0.18
2013-11-28,68.2,51.7,37.8,52.1,42.7,31.8,85,72,54,30.14,30.00,9,5,14,0.00
2013-11-29,72.9,60.1,50.9,59.8,53.1,47.4,94,79,56,30.17,30.09,12,6,17,0.00
2013-11-30,78.1,66.2,58.1,65.0,60.5,53.9,99,83,55,30.11,29.99,8,5,14,0.02